createdAt,value
2023-03-27T00:01:38.252Z,23.35
2023-03-27T00:04:06.968Z,23.36
2023-03-27T00:06:37.364Z,23.36
2023-03-27T00:09:08.365Z,23.36
2023-03-27T00:11:37.071Z,23.35
2023-03-27T00:14:05.802Z,23.36
2023-03-27T00:16:34.304Z,23.36
2023-03-27T00:19:02.773Z,23.36
2023-03-27T00:21:31.254Z,23.35
2023-03-27T00:24:01.076Z,23.35
2023-03-27T00:26:30.680Z,23.35
2023-03-27T00:28:59.216Z,23.36
2023-03-27T00:31:27.669Z,23.35
2023-03-27T00:33:56.133Z,23.35
2023-03-27T00:36:24.569Z,23.35
2023-03-27T00:38:53.368Z,23.36
2023-03-27T00:41:23.539Z,23.34
2023-03-27T00:43:54.168Z,23.34
2023-03-27T00:46:40.671Z,23.35
2023-03-27T00:49:11.099Z,23.35
2023-03-27T00:51:39.536Z,23.34
2023-03-27T00:54:08.068Z,23.35
2023-03-27T00:56:38.758Z,23.35
2023-03-27T00:59:10.437Z,23.34
2023-03-27T01:01:38.968Z,23.34
2023-03-27T01:04:08.120Z,23.34
2023-03-27T01:06:36.622Z,23.34
2023-03-27T01:09:05.625Z,23.34
2023-03-27T01:11:46.149Z,23.33
2023-03-27T01:14:20.407Z,23.34
2023-03-27T01:16:57.634Z,23.34
2023-03-27T01:19:47.528Z,23.34
2023-03-27T01:23:08.515Z,23.34
2023-03-27T01:25:56.062Z,23.34
2023-03-27T01:28:35.757Z,23.33
2023-03-27T01:31:14.164Z,23.35
2023-03-27T01:34:02.001Z,23.35
2023-03-27T01:37:00.017Z,23.34
2023-03-27T01:39:49.705Z,23.34
2023-03-27T01:42:22.570Z,23.34
2023-03-27T01:44:53.562Z,23.33
2023-03-27T01:47:30.947Z,23.34
2023-03-27T01:50:03.814Z,23.33
2023-03-27T01:52:34.420Z,23.34
2023-03-27T01:55:05.522Z,23.34
2023-03-27T01:57:49.203Z,23.35
2023-03-27T02:00:22.640Z,23.33
2023-03-27T02:02:54.411Z,23.34
2023-03-27T02:05:27.109Z,23.33
2023-03-27T02:07:58.638Z,23.33
2023-03-27T02:10:30.374Z,23.32
2023-03-27T02:13:01.184Z,23.33
2023-03-27T02:15:32.667Z,23.34
2023-03-27T02:18:05.502Z,23.31
2023-03-27T02:20:34.202Z,23.33
2023-03-27T02:23:02.655Z,23.33
2023-03-27T02:25:34.290Z,23.33
2023-03-27T02:28:26.169Z,23.34
2023-03-27T02:31:06.192Z,23.33
2023-03-27T02:34:02.668Z,23.33
2023-03-27T02:36:37.505Z,23.33
2023-03-27T02:39:08.815Z,23.33
2023-03-27T02:41:41.110Z,23.33
2023-03-27T02:44:13.065Z,23.32
2023-03-27T02:46:44.219Z,23.33
2023-03-27T02:49:15.973Z,23.33
2023-03-27T02:51:46.510Z,23.33
2023-03-27T02:54:16.644Z,23.32
2023-03-27T02:56:48.901Z,23.31
2023-03-27T02:59:20.558Z,23.32
2023-03-27T03:01:49.073Z,23.33
2023-03-27T03:04:20.471Z,23.34
2023-03-27T03:06:50.504Z,23.31
2023-03-27T03:09:19.130Z,23.33
2023-03-27T03:11:50.376Z,23.33
2023-03-27T03:14:20.828Z,23.33
2023-03-27T03:16:49.329Z,23.33
2023-03-27T03:19:17.772Z,23.31
2023-03-27T03:21:49.435Z,23.33
2023-03-27T03:24:19.187Z,23.33
2023-03-27T03:26:50.300Z,23.32
2023-03-27T03:29:19.264Z,23.33
2023-03-27T03:31:48.683Z,23.32
2023-03-27T03:34:19.222Z,23.31
2023-03-27T03:36:49.806Z,23.33
2023-03-27T03:39:18.770Z,23.31
2023-03-27T03:41:48.753Z,23.32
2023-03-27T03:44:17.175Z,23.33
2023-03-27T03:46:45.621Z,23.32
2023-03-27T03:49:14.161Z,23.33
2023-03-27T03:51:42.613Z,23.31
2023-03-27T03:54:11.198Z,23.31
2023-03-27T03:56:41.792Z,23.32
2023-03-27T03:59:11.952Z,23.32
2023-03-27T04:01:42.986Z,23.32
2023-03-27T04:04:12.312Z,23.31
2023-03-27T04:06:43.303Z,23.31
2023-03-27T04:09:12.475Z,23.31
2023-03-27T04:11:40.885Z,23.30
2023-03-27T04:14:09.283Z,23.31
2023-03-27T04:16:39.100Z,23.29
2023-03-27T04:19:07.593Z,23.30
2023-03-27T04:21:36.575Z,23.30
2023-03-27T04:24:05.358Z,23.29
2023-03-27T04:26:35.502Z,23.31
2023-03-27T04:29:04.213Z,23.29
2023-03-27T04:31:34.636Z,23.30
2023-03-27T04:34:04.684Z,23.29
2023-03-27T04:36:33.165Z,23.29
2023-03-27T04:39:02.408Z,23.30
2023-03-27T04:41:33.134Z,23.30
2023-03-27T04:44:01.595Z,23.29
2023-03-27T04:46:30.065Z,23.30
2023-03-27T04:48:59.400Z,23.30
2023-03-27T04:51:32.551Z,23.30
2023-03-27T04:54:04.959Z,23.30
2023-03-27T04:56:35.057Z,23.28
2023-03-27T04:59:04.798Z,23.29
2023-03-27T05:01:33.985Z,23.30
2023-03-27T05:04:03.779Z,23.33
2023-03-27T05:06:34.335Z,23.34
2023-03-27T05:09:03.428Z,23.35
2023-03-27T05:11:32.019Z,23.37
2023-03-27T05:14:00.551Z,23.38
2023-03-27T05:16:29.202Z,23.36
2023-03-27T05:18:57.688Z,23.36
2023-03-27T05:21:26.182Z,23.40
2023-03-27T05:23:56.530Z,23.41
2023-03-27T05:26:24.974Z,23.41
2023-03-27T05:28:55.711Z,23.43
2023-03-27T05:31:25.166Z,23.37
2023-03-27T05:33:53.880Z,23.34
2023-03-27T05:36:23.269Z,23.33
2023-03-27T05:38:53.297Z,23.31
2023-03-27T05:41:23.332Z,23.37
2023-03-27T05:43:51.880Z,23.39
2023-03-27T05:46:21.283Z,23.38
2023-03-27T05:48:50.203Z,23.41
2023-03-27T05:51:18.717Z,23.38
2023-03-27T05:53:47.162Z,23.38
2023-03-27T05:56:15.592Z,23.38
2023-03-27T05:58:45.454Z,23.38
2023-03-27T06:01:14.191Z,23.38
2023-03-27T06:03:43.191Z,23.38
2023-03-27T06:06:13.483Z,23.40
2023-03-27T06:08:42.248Z,23.40
2023-03-27T06:11:13.518Z,23.40
2023-03-27T06:13:42.770Z,23.37
2023-03-27T06:16:12.640Z,23.36
2023-03-27T06:18:41.347Z,23.35
2023-03-27T06:21:09.801Z,23.34
2023-03-27T06:23:38.248Z,23.35
2023-03-27T06:26:07.516Z,23.33
2023-03-27T06:28:35.955Z,23.34
2023-03-27T06:31:04.497Z,23.33
2023-03-27T06:33:35.198Z,23.33
2023-03-27T06:36:05.417Z,23.32
2023-03-27T06:38:33.890Z,23.30
2023-03-27T06:41:03.041Z,23.31
2023-03-27T06:43:31.531Z,23.29
2023-03-27T06:46:03.282Z,23.29
2023-03-27T06:48:33.220Z,23.30
2023-03-27T06:51:01.973Z,23.30
2023-03-27T06:53:35.517Z,23.29
2023-03-27T06:56:07.457Z,23.29
2023-03-27T06:58:36.804Z,23.27
2023-03-27T07:01:05.604Z,23.27
2023-03-27T07:03:36.985Z,23.27
2023-03-27T07:06:06.022Z,23.28
2023-03-27T07:08:34.663Z,23.27
2023-03-27T07:13:35.916Z,23.27
2023-03-27T07:16:04.574Z,23.27
2023-03-27T07:18:34.520Z,23.27
2023-03-27T07:21:03.025Z,23.30
2023-03-27T07:23:31.679Z,23.31
2023-03-27T07:26:00.303Z,23.29
2023-03-27T07:28:28.964Z,23.27
2023-03-27T07:30:57.581Z,23.28
2023-03-27T07:33:26.152Z,23.28
2023-03-27T07:35:56.635Z,23.24
2023-03-27T07:38:25.494Z,23.27
2023-03-27T07:40:53.978Z,23.25
2023-03-27T07:43:22.389Z,23.26
2023-03-27T07:45:50.841Z,23.26
2023-03-27T07:48:19.376Z,23.25
2023-03-27T07:50:47.909Z,23.26
2023-03-27T07:53:32.902Z,23.26
2023-03-27T07:56:02.964Z,23.26
2023-03-27T07:58:31.660Z,23.26
2023-03-27T08:01:02.527Z,23.25
2023-03-27T08:03:31.704Z,23.26
2023-03-27T08:06:01.032Z,23.24
2023-03-27T08:08:30.988Z,23.25
2023-03-27T08:10:59.755Z,23.24
2023-03-27T08:13:28.261Z,23.24
2023-03-27T08:16:04.707Z,23.24
2023-03-27T08:18:33.536Z,23.26
2023-03-27T08:21:03.301Z,23.29
2023-03-27T08:23:33.938Z,23.24
2023-03-27T08:26:02.570Z,23.26
2023-03-27T08:28:31.422Z,23.25
2023-03-27T08:31:02.374Z,23.25
2023-03-27T08:33:31.580Z,23.25
2023-03-27T08:36:00.405Z,23.24
2023-03-27T08:38:33.319Z,23.24
2023-03-27T08:41:03.974Z,23.25
2023-03-27T08:43:40.795Z,23.23
2023-03-27T08:46:14.273Z,23.23
2023-03-27T08:48:46.878Z,23.23
2023-03-27T08:51:19.497Z,23.23
2023-03-27T08:53:51.971Z,23.23
2023-03-27T08:56:21.908Z,23.23
2023-03-27T08:58:50.584Z,23.23
2023-03-27T09:01:26.258Z,23.22
2023-03-27T09:03:59.849Z,23.22
2023-03-27T09:06:30.193Z,23.22
2023-03-27T09:09:06.551Z,23.23
2023-03-27T09:11:46.991Z,23.23
2023-03-27T09:14:25.150Z,23.23
2023-03-27T09:16:53.926Z,23.22
2023-03-27T09:19:29.409Z,23.22
2023-03-27T09:22:01.339Z,23.20
2023-03-27T09:24:33.569Z,23.22
2023-03-27T09:27:12.320Z,23.20
2023-03-27T09:29:42.004Z,23.19
2023-03-27T09:32:13.334Z,23.20
2023-03-27T09:34:41.898Z,23.21
2023-03-27T09:37:13.069Z,23.20
2023-03-27T09:39:44.116Z,23.19
2023-03-27T09:42:19.358Z,23.21
2023-03-27T09:44:50.475Z,23.21
2023-03-27T09:47:23.248Z,23.23
2023-03-27T09:49:54.668Z,23.24
2023-03-27T09:52:36.425Z,23.24
2023-03-27T09:55:05.914Z,23.24
2023-03-27T09:57:37.470Z,23.24
2023-03-27T10:00:14.573Z,23.24
2023-03-27T10:02:43.033Z,23.23
2023-03-27T10:05:18.477Z,23.24
2023-03-27T10:07:47.051Z,23.23
2023-03-27T10:10:18.004Z,23.22
2023-03-27T10:12:51.015Z,23.20
2023-03-27T10:15:38.801Z,23.24
2023-03-27T10:18:08.987Z,23.24
2023-03-27T10:20:37.579Z,23.22
2023-03-27T10:23:09.862Z,23.21
2023-03-27T10:25:40.043Z,23.20
2023-03-27T10:28:19.853Z,23.20
2023-03-27T10:30:49.295Z,23.19
2023-03-27T10:33:31.212Z,23.20
2023-03-27T10:35:59.856Z,23.20
2023-03-27T10:38:28.840Z,23.19
2023-03-27T10:40:57.645Z,23.20
2023-03-27T10:43:31.824Z,23.19
2023-03-27T10:46:01.623Z,23.19
2023-03-27T10:48:39.859Z,23.20
2023-03-27T10:51:33.138Z,23.19
2023-03-27T10:54:14.363Z,23.18
2023-03-27T10:56:51.380Z,23.17
2023-03-27T10:59:38.368Z,23.18
2023-03-27T11:02:16.136Z,23.19
2023-03-27T11:04:49.075Z,23.19
2023-03-27T11:07:22.486Z,23.17
2023-03-27T11:10:05.361Z,23.16
2023-03-27T11:12:36.353Z,23.17
2023-03-27T11:15:13.469Z,23.17
2023-03-27T11:17:45.743Z,23.17
2023-03-27T11:20:22.180Z,23.17
2023-03-27T11:22:56.052Z,23.17
2023-03-27T11:25:32.323Z,23.15
2023-03-27T11:28:04.772Z,23.14
2023-03-27T11:30:38.146Z,23.15
2023-03-27T11:33:25.686Z,23.15
2023-03-27T11:35:57.548Z,23.15
2023-03-27T11:38:28.949Z,23.15
2023-03-27T11:40:58.311Z,23.15
2023-03-27T11:43:27.017Z,23.15
2023-03-27T11:46:03.527Z,23.15
2023-03-27T11:49:02.399Z,23.15
2023-03-27T11:51:44.523Z,23.15
2023-03-27T11:54:38.574Z,23.14
2023-03-27T11:57:10.686Z,23.14
2023-03-27T11:59:48.807Z,23.13
2023-03-27T12:03:01.745Z,23.14
2023-03-27T12:05:38.753Z,23.13
2023-03-27T12:08:10.097Z,23.16
2023-03-27T12:10:39.307Z,23.15
2023-03-27T12:13:41.342Z,23.16
2023-03-27T12:16:25.465Z,23.14
2023-03-27T12:19:10.674Z,23.16
2023-03-27T12:21:55.671Z,23.14
2023-03-27T12:24:33.715Z,23.14
2023-03-27T12:27:18.483Z,23.14
2023-03-27T12:29:54.526Z,23.14
2023-03-27T12:32:52.115Z,23.13
2023-03-27T12:35:24.507Z,23.13
2023-03-27T12:37:59.652Z,23.13
2023-03-27T12:40:31.823Z,23.15
2023-03-27T12:43:12.352Z,23.19
2023-03-27T12:45:53.139Z,23.18
2023-03-27T12:48:21.999Z,23.17
2023-03-27T12:50:59.524Z,23.17
2023-03-27T12:53:51.158Z,23.15
2023-03-27T12:56:35.508Z,23.13
2023-03-27T12:59:06.536Z,23.13
2023-03-27T13:01:55.762Z,23.12
2023-03-27T13:05:27.468Z,23.12
2023-03-27T13:08:10.440Z,23.15
2023-03-27T13:10:53.500Z,23.18
2023-03-27T13:14:19.589Z,23.16
2023-03-27T13:16:58.826Z,23.20
2023-03-27T13:19:35.631Z,23.18
2023-03-27T13:22:20.041Z,23.20
2023-03-27T13:25:23.923Z,23.18
2023-03-27T13:28:36.855Z,23.12
2023-03-27T13:31:05.940Z,23.17
2023-03-27T13:33:44.158Z,23.15
2023-03-27T13:36:17.740Z,23.16
2023-03-27T13:39:22.472Z,23.15
2023-03-27T13:42:10.600Z,23.15
2023-03-27T13:44:58.895Z,23.14
2023-03-27T13:48:15.119Z,23.17
2023-03-27T13:51:26.593Z,23.16
2023-03-27T13:54:45.015Z,23.15
2023-03-27T13:57:24.183Z,23.13
2023-03-27T14:00:41.583Z,23.15
2023-03-27T14:03:58.685Z,23.14
2023-03-27T14:07:29.121Z,23.15
2023-03-27T14:10:19.858Z,23.17
2023-03-27T14:12:59.720Z,23.18
2023-03-27T14:16:01.519Z,23.17
2023-03-27T14:19:10.666Z,23.17
2023-03-27T14:21:52.503Z,23.15
2023-03-27T14:24:30.554Z,23.16
2023-03-27T14:26:59.684Z,23.15
2023-03-27T14:29:32.592Z,23.16
2023-03-27T14:32:05.086Z,23.19
2023-03-27T14:34:47.350Z,23.18
2023-03-27T14:37:30.073Z,23.16
2023-03-27T14:39:59.607Z,23.17
2023-03-27T14:42:31.929Z,23.17
2023-03-27T14:45:20.626Z,23.17
2023-03-27T14:47:51.753Z,23.18
2023-03-27T14:50:20.270Z,23.16
2023-03-27T14:52:53.239Z,23.17
2023-03-27T14:55:23.041Z,23.17
2023-03-27T14:57:51.774Z,23.17
2023-03-27T15:00:24.622Z,23.17
2023-03-27T15:02:54.973Z,23.22
2023-03-27T15:05:24.395Z,23.23
2023-03-27T15:07:53.023Z,23.22
2023-03-27T15:10:24.746Z,23.24
2023-03-27T15:12:53.479Z,23.23
2023-03-27T15:15:34.671Z,23.22
2023-03-27T15:18:05.180Z,23.21
2023-03-27T15:20:34.560Z,23.20
2023-03-27T15:23:09.748Z,23.22
2023-03-27T15:25:43.865Z,23.21
2023-03-27T15:28:18.973Z,23.20
2023-03-27T15:30:51.509Z,23.19
2023-03-27T15:33:24.231Z,23.20
2023-03-27T15:35:54.456Z,23.19
2023-03-27T15:38:26.841Z,23.17
2023-03-27T15:41:03.160Z,23.19
2023-03-27T15:43:32.181Z,23.18
2023-03-27T15:46:14.928Z,23.20
2023-03-27T15:48:45.376Z,23.18
2023-03-27T15:51:14.844Z,23.18
2023-03-27T15:53:45.170Z,23.18
2023-03-27T15:56:21.952Z,23.18
2023-03-27T15:58:52.721Z,23.19
2023-03-27T16:01:24.653Z,23.20
2023-03-27T16:03:54.330Z,23.28
2023-03-27T16:06:28.257Z,23.23
2023-03-27T16:08:56.727Z,23.21
2023-03-27T16:11:43.112Z,23.20
2023-03-27T16:14:30.210Z,23.19
2023-03-27T16:17:21.685Z,23.19
2023-03-27T16:19:55.182Z,23.19
2023-03-27T16:22:24.472Z,23.18
2023-03-27T16:24:53.403Z,23.17
2023-03-27T16:27:23.992Z,23.17
2023-03-27T16:29:52.716Z,23.16
2023-03-27T16:32:23.485Z,23.15
2023-03-27T16:34:52.636Z,23.15
2023-03-27T16:37:21.715Z,23.15
2023-03-27T16:39:50.231Z,23.14
2023-03-27T16:42:22.635Z,23.15
2023-03-27T16:44:52.782Z,23.14
2023-03-27T16:47:24.803Z,23.15
2023-03-27T16:50:10.226Z,23.13
2023-03-27T16:52:39.846Z,23.19
2023-03-27T16:55:09.988Z,23.16
2023-03-27T16:57:38.487Z,23.14
2023-03-27T17:00:09.719Z,23.13
2023-03-27T17:02:39.808Z,23.13
2023-03-27T17:05:09.604Z,23.13
2023-03-27T17:07:38.134Z,23.12
2023-03-27T17:10:08.568Z,23.12
2023-03-27T17:12:37.148Z,23.12
2023-03-27T17:15:06.646Z,23.09
2023-03-27T17:17:35.219Z,23.08
2023-03-27T17:20:07.800Z,23.08
2023-03-27T17:22:36.518Z,23.12
2023-03-27T17:25:06.890Z,23.11
2023-03-27T17:27:35.576Z,23.11
2023-03-27T17:30:05.056Z,23.10
2023-03-27T17:32:33.544Z,23.11
2023-03-27T17:35:04.519Z,23.11
2023-03-27T17:37:35.364Z,22.93
2023-03-27T17:40:06.460Z,23.09
2023-03-27T17:42:34.935Z,23.12
2023-03-27T17:45:03.757Z,23.11
2023-03-27T17:47:32.322Z,23.08
2023-03-27T17:50:00.853Z,23.09
2023-03-27T17:52:29.335Z,23.09
2023-03-27T17:55:00.057Z,23.12
2023-03-27T17:57:29.743Z,23.08
2023-03-27T17:59:58.286Z,23.09
2023-03-27T18:02:27.274Z,23.12
2023-03-27T18:04:56.034Z,23.15
2023-03-27T18:07:24.660Z,23.13
2023-03-27T18:09:53.615Z,23.13
2023-03-27T18:12:23.669Z,23.13
2023-03-27T18:14:52.177Z,23.15
2023-03-27T18:17:21.293Z,23.16
2023-03-27T18:19:49.827Z,23.17
2023-03-27T18:22:18.300Z,23.15
2023-03-27T18:24:47.090Z,23.15
2023-03-27T18:27:16.508Z,23.15
2023-03-27T18:29:46.424Z,23.15
2023-03-27T18:32:14.910Z,23.18
2023-03-27T18:34:43.478Z,23.16
2023-03-27T18:37:11.975Z,23.14
2023-03-27T18:39:40.550Z,23.14
2023-03-27T18:42:08.989Z,23.11
2023-03-27T18:44:39.227Z,23.12
2023-03-27T18:47:11.132Z,23.11
2023-03-27T18:49:40.036Z,23.12
2023-03-27T18:52:09.970Z,23.10
2023-03-27T18:54:38.471Z,23.10
2023-03-27T18:57:07.117Z,23.11
2023-03-27T18:59:36.276Z,23.09
2023-03-27T19:02:04.798Z,23.11
2023-03-27T19:04:34.645Z,23.08
2023-03-27T19:07:03.184Z,23.05
2023-03-27T19:09:40.850Z,23.05
2023-03-27T19:12:10.600Z,23.04
2023-03-27T19:14:39.091Z,23.03
2023-03-27T19:17:07.727Z,23.08
2023-03-27T19:19:37.610Z,23.10
2023-03-27T19:22:08.422Z,23.07
2023-03-27T19:24:37.161Z,23.08
2023-03-27T19:27:05.633Z,23.07
2023-03-27T19:29:34.242Z,23.06
2023-03-27T19:32:02.782Z,23.07
2023-03-27T19:34:40.356Z,23.04
2023-03-27T19:37:12.462Z,23.07
2023-03-27T19:39:41.075Z,23.06
2023-03-27T19:42:10.221Z,23.06
2023-03-27T19:44:39.235Z,23.05
2023-03-27T19:47:09.795Z,23.05
2023-03-27T19:49:38.387Z,23.05
2023-03-27T19:52:07.363Z,23.04
2023-03-27T19:54:37.206Z,23.03
2023-03-27T19:57:05.807Z,23.02
2023-03-27T19:59:34.489Z,23.03
2023-03-27T20:02:04.362Z,23.02
2023-03-27T20:04:32.900Z,23.02
2023-03-27T20:07:02.075Z,23.02
2023-03-27T20:09:31.533Z,23.02
2023-03-27T20:12:01.431Z,23.01
2023-03-27T20:14:30.030Z,23.01
2023-03-27T20:16:58.482Z,23.01
2023-03-27T20:19:30.721Z,22.99
2023-03-27T20:21:59.697Z,23.00
2023-03-27T20:24:29.068Z,22.99
2023-03-27T20:26:58.499Z,23.01
2023-03-27T20:29:28.498Z,23.02
2023-03-27T20:31:57.238Z,23.02
2023-03-27T20:34:25.788Z,23.00
2023-03-27T20:36:54.946Z,23.01
2023-03-27T20:39:23.775Z,23.02
2023-03-27T20:41:53.148Z,22.99
2023-03-27T20:44:21.572Z,22.99
2023-03-27T20:46:52.673Z,23.01
2023-03-27T20:49:39.868Z,23.00
2023-03-27T20:52:09.115Z,22.99
2023-03-27T20:54:37.692Z,22.99
2023-03-27T20:57:06.402Z,22.99
2023-03-27T20:59:35.008Z,22.99
2023-03-27T21:02:05.128Z,22.98
2023-03-27T21:04:33.756Z,22.98
2023-03-27T21:07:02.257Z,22.98
2023-03-27T21:09:30.855Z,22.98
2023-03-27T21:12:01.195Z,22.96
2023-03-27T21:14:29.696Z,22.97
2023-03-27T21:16:58.183Z,22.97
2023-03-27T21:19:28.130Z,22.96
2023-03-27T21:21:56.600Z,22.97
2023-03-27T21:24:25.107Z,22.96
2023-03-27T21:26:53.613Z,23.01
2023-03-27T21:29:22.079Z,22.97
2023-03-27T21:31:50.689Z,22.97
2023-03-27T21:34:19.348Z,22.96
2023-03-27T21:36:49.228Z,22.97
2023-03-27T21:39:17.805Z,22.96
2023-03-27T21:41:46.434Z,22.95
2023-03-27T21:44:15.282Z,22.96
2023-03-27T21:46:43.774Z,22.95
2023-03-27T21:49:12.278Z,22.96
2023-03-27T21:51:40.895Z,22.94
2023-03-27T21:54:10.801Z,22.94
2023-03-27T21:56:39.357Z,22.94
2023-03-27T21:59:07.857Z,22.93
2023-03-27T22:01:36.336Z,22.93
2023-03-27T22:04:04.853Z,22.93
2023-03-27T22:06:33.396Z,22.93
2023-03-27T22:09:01.925Z,22.92
2023-03-27T22:11:31.755Z,22.92
2023-03-27T22:14:01.094Z,22.93
2023-03-27T22:16:29.693Z,22.92
2023-03-27T22:18:58.214Z,22.91
2023-03-27T22:21:28.839Z,22.90
2023-03-27T22:23:58.058Z,22.92
2023-03-27T22:26:27.857Z,22.91
2023-03-27T22:28:57.756Z,22.93
2023-03-27T22:31:27.217Z,22.94
2023-03-27T22:33:55.741Z,22.92
2023-03-27T22:36:24.222Z,22.94
2023-03-27T22:38:52.883Z,22.94
2023-03-27T22:41:21.366Z,22.94
2023-03-27T22:43:50.032Z,22.94
2023-03-27T22:46:21.493Z,22.94
2023-03-27T22:48:54.586Z,22.93
2023-03-27T22:51:23.109Z,22.93
2023-03-27T22:53:51.644Z,22.93
2023-03-27T22:56:21.256Z,22.94
2023-03-27T22:58:49.717Z,22.93
2023-03-27T23:01:19.592Z,22.94
2023-03-27T23:03:48.212Z,22.94
2023-03-27T23:06:20.612Z,22.94
2023-03-27T23:08:49.820Z,22.94
2023-03-27T23:11:18.532Z,22.93
2023-03-27T23:13:47.023Z,22.94
2023-03-27T23:16:15.754Z,22.92
2023-03-27T23:18:45.644Z,22.93
2023-03-27T23:21:16.780Z,22.95
2023-03-27T23:23:45.275Z,22.96
2023-03-27T23:26:13.913Z,22.95
2023-03-27T23:28:43.158Z,22.94
2023-03-27T23:31:13.481Z,22.94
2023-03-27T23:33:44.217Z,22.94
2023-03-27T23:36:14.482Z,22.93
2023-03-27T23:38:43.027Z,22.93
2023-03-27T23:41:12.370Z,22.94
2023-03-27T23:43:40.782Z,22.93
2023-03-27T23:46:10.868Z,22.94
2023-03-27T23:48:39.960Z,22.93
2023-03-27T23:51:10.150Z,22.93
2023-03-27T23:53:38.745Z,22.93
2023-03-27T23:56:08.082Z,22.93
2023-03-27T23:58:37.544Z,22.93
